Terminal Aerodrome Forecast
Issued by NWS

Home | Current Version | Previous Version | Text Only | Print | Product List | Glossary On
Versions: 1 2 3 4 5 6 7 8 9 10 11 12 13 14 15 16 17 18 19 20 21 22 23 24 25 26 27 28 29 30 31 32 33 34 35 36 37 38 39 40
000
FTUS44 KFWD 280520
TAFAFW
TAF
KAFW 280520Z 2806/2906 14006KT P6SM BKN060
     FM281100 16007KT P6SM BKN024
     FM281700 18013KT P6SM SCT050
     FM290500 18010KT P6SM VCTS BKN040CB=

USA.gov is the U.S. government's official web portal to all federal, state and local government web resources and services.